Anzahl Datensätze: 288
min. Temperatur: 3.9 °C
max. Temperatur: 13.2 °C
max. Windgeschwindigkeit: 24.1 km/h
Niederschlagsumme: 20.8 mm
| Datum |
Zeit |
Temp °C |
Feuchte % |
Taupunkt °C |
Luftdruck hPa |
Wind km/h |
Windrichtung |
Strahlung w/m² |
Niederschlag mm |
|---|---|---|---|---|---|---|---|---|---|
| 11.10.2024 | 00:03 | 9.6 | 89 | 7.9 | 1009.4 | 1.4 | NW | 0 | 20.8 |
| 11.10.2024 | 00:09 | 9.5 | 89 | 7.8 | 1009.4 | 1.4 | NNO | 0 | 0.0 |
| 11.10.2024 | 00:12 | 9.4 | 89 | 7.7 | 1009.5 | 1.4 | WNW | 0 | 0.0 |
| 11.10.2024 | 00:18 | 9.3 | 89 | 7.6 | 1009.6 | 3.2 | SSO | 0 | 0.0 |
| 11.10.2024 | 00:24 | 9.3 | 89 | 7.6 | 1009.7 | 3.2 | S | 0 | 0.0 |
| 11.10.2024 | 00:27 | 9.2 | 89 | 7.5 | 1009.7 | 1.4 | SO | 0 | 0.0 |
| 11.10.2024 | 00:33 | 9.1 | 89 | 7.4 | 1009.7 | 1.4 | SSO | 0 | 0.0 |
| 11.10.2024 | 00:39 | 9.1 | 89 | 7.4 | 1009.8 | 1.4 | NNO | 0 | 0.0 |
| 11.10.2024 | 00:42 | 8.9 | 90 | 7.3 | 1009.9 | 1.4 | N | 0 | 0.0 |
| 11.10.2024 | 00:48 | 8.9 | 90 | 7.3 | 1009.8 | 1.4 | N | 0 | 0.0 |
| 11.10.2024 | 00:54 | 8.9 | 90 | 7.3 | 1009.9 | 0.0 | N | 0 | 0.0 |
| 11.10.2024 | 00:57 | 8.8 | 89 | 7.1 | 1009.9 | 0.0 | N | 0 | 0.0 |
| 11.10.2024 | 01:03 | 8.8 | 89 | 7.1 | 1010.0 | 1.4 | WNW | 0 | 0.0 |
| 11.10.2024 | 01:09 | 8.7 | 90 | 7.2 | 1010.1 | 1.4 | NNW | 0 | 0.0 |
| 11.10.2024 | 01:12 | 8.7 | 90 | 7.2 | 1010.1 | 1.4 | NNW | 0 | 0.0 |
| 11.10.2024 | 01:18 | 8.6 | 90 | 7.1 | 1010.2 | 0.0 | W | 0 | 0.0 |
| 11.10.2024 | 01:24 | 8.6 | 90 | 7.1 | 1010.3 | 0.0 | W | 0 | 0.0 |
| 11.10.2024 | 01:27 | 8.6 | 90 | 7.1 | 1010.2 | 0.0 | W | 0 | 0.0 |
| 11.10.2024 | 01:33 | 8.7 | 90 | 7.2 | 1010.4 | 0.0 | W | 0 | 0.0 |
| 11.10.2024 | 01:39 | 8.6 | 90 | 7.1 | 1010.5 | 0.0 | W | 0 | 0.0 |
| 11.10.2024 | 01:42 | 8.6 | 90 | 7.1 | 1010.5 | 1.4 | W | 0 | 0.0 |
| 11.10.2024 | 01:48 | 8.6 | 90 | 7.1 | 1010.6 | 1.4 | W | 0 | 0.0 |
| 11.10.2024 | 01:54 | 8.6 | 90 | 7.1 | 1010.7 | 0.0 | W | 0 | 0.0 |
| 11.10.2024 | 01:57 | 8.6 | 90 | 7.1 | 1010.7 | 0.0 | W | 0 | 0.0 |
| 11.10.2024 | 02:03 | 8.6 | 90 | 7.1 | 1010.8 | 0.0 | W | 0 | 0.0 |
| 11.10.2024 | 02:09 | 8.6 | 90 | 7.1 | 1010.9 | 0.0 | W | 0 | 0.0 |
| 11.10.2024 | 02:12 | 8.6 | 90 | 7.1 | 1011.0 | 0.0 | W | 0 | 0.0 |
| 11.10.2024 | 02:18 | 8.6 | 90 | 7.1 | 1011.0 | 0.0 | W | 0 | 0.0 |
| 11.10.2024 | 02:24 | 8.6 | 90 | 7.1 | 1011.1 | 0.0 | W | 0 | 0.0 |
| 11.10.2024 | 02:27 | 8.6 | 90 | 7.1 | 1011.1 | 1.4 | W | 0 | 0.0 |
| 11.10.2024 | 02:33 | 8.6 | 90 | 7.1 | 1011.3 | 1.4 | W | 0 | 0.0 |
| 11.10.2024 | 02:39 | 8.5 | 89 | 6.8 | 1011.3 | 0.0 | SSW | 0 | 0.0 |
| 11.10.2024 | 02:42 | 8.4 | 89 | 6.7 | 1011.3 | 0.0 | WSW | 0 | 0.0 |
| 11.10.2024 | 02:48 | 8.4 | 89 | 6.7 | 1011.4 | 0.0 | WSW | 0 | 0.0 |
| 11.10.2024 | 02:54 | 8.3 | 90 | 6.8 | 1011.4 | 0.0 | WSW | 0 | 0.0 |
| 11.10.2024 | 02:57 | 8.3 | 90 | 6.8 | 1011.4 | 0.0 | WSW | 0 | 0.0 |
| 11.10.2024 | 03:03 | 8.2 | 90 | 6.7 | 1011.4 | 0.0 | WSW | 0 | 0.0 |
| 11.10.2024 | 03:09 | 8.2 | 90 | 6.7 | 1011.5 | 0.0 | WSW | 0 | 0.0 |
| 11.10.2024 | 03:12 | 8.2 | 90 | 6.7 | 1011.5 | 0.0 | WSW | 0 | 0.0 |
| 11.10.2024 | 03:18 | 8.2 | 90 | 6.7 | 1011.6 | 0.0 | WSW | 0 | 0.0 |
| 11.10.2024 | 03:24 | 8.2 | 90 | 6.7 | 1011.8 | 0.0 | WSW | 0 | 0.0 |
| 11.10.2024 | 03:27 | 8.2 | 90 | 6.7 | 1011.8 | 0.0 | WSW | 0 | 0.0 |
| 11.10.2024 | 03:33 | 8.1 | 89 | 6.4 | 1011.9 | 0.0 | WSW | 0 | 0.0 |
| 11.10.2024 | 03:39 | 8.0 | 89 | 6.3 | 1011.9 | 0.0 | WSW | 0 | 0.0 |
| 11.10.2024 | 03:42 | 7.9 | 90 | 6.4 | 1012.0 | 0.0 | WSW | 0 | 0.0 |
| 11.10.2024 | 03:48 | 7.8 | 90 | 6.3 | 1012.1 | 0.0 | WSW | 0 | 0.0 |
| 11.10.2024 | 03:54 | 7.7 | 90 | 6.2 | 1012.2 | 0.0 | WSW | 0 | 0.0 |
| 11.10.2024 | 03:57 | 7.7 | 90 | 6.2 | 1012.2 | 0.0 | WSW | 0 | 0.0 |
| 11.10.2024 | 04:03 | 7.7 | 90 | 6.2 | 1012.4 | 0.0 | WSW | 0 | 0.0 |
| 11.10.2024 | 04:09 | 7.7 | 90 | 6.2 | 1012.4 | 0.0 | WSW | 0 | 0.0 |
| 11.10.2024 | 04:12 | 7.7 | 90 | 6.2 | 1012.4 | 0.0 | WSW | 0 | 0.0 |
| 11.10.2024 | 04:18 | 7.7 | 90 | 6.2 | 1012.4 | 0.0 | WSW | 0 | 0.0 |
| 11.10.2024 | 04:24 | 7.7 | 89 | 6.0 | 1012.6 | 0.0 | WSW | 0 | 0.0 |
| 11.10.2024 | 04:27 | 7.7 | 89 | 6.0 | 1012.6 | 0.0 | WSW | 0 | 0.0 |
| 11.10.2024 | 04:33 | 7.7 | 90 | 6.2 | 1012.6 | 0.0 | WSW | 0 | 0.0 |
| 11.10.2024 | 04:39 | 7.7 | 90 | 6.2 | 1012.7 | 0.0 | WSW | 0 | 0.0 |
| 11.10.2024 | 04:42 | 7.7 | 90 | 6.2 | 1012.8 | 0.0 | WSW | 0 | 0.0 |
| 11.10.2024 | 04:48 | 7.7 | 90 | 6.2 | 1012.9 | 0.0 | WSW | 0 | 0.0 |
| 11.10.2024 | 04:54 | 7.7 | 90 | 6.2 | 1012.8 | 0.0 | WSW | 0 | 0.0 |
| 11.10.2024 | 04:57 | 7.7 | 90 | 6.2 | 1012.9 | 0.0 | WSW | 0 | 0.0 |
| 11.10.2024 | 05:03 | 7.7 | 89 | 6.0 | 1013.0 | 0.0 | WSW | 0 | 0.0 |
| 11.10.2024 | 05:09 | 7.7 | 90 | 6.2 | 1013.1 | 0.0 | WSW | 0 | 0.0 |
| 11.10.2024 | 05:12 | 7.8 | 90 | 6.3 | 1013.1 | 0.0 | WSW | 0 | 0.0 |
| 11.10.2024 | 05:18 | 7.8 | 90 | 6.3 | 1013.1 | 0.0 | WSW | 0 | 0.0 |
| 11.10.2024 | 05:24 | 7.8 | 90 | 6.3 | 1013.2 | 0.0 | WSW | 0 | 0.0 |
| 11.10.2024 | 05:27 | 7.8 | 90 | 6.3 | 1013.2 | 0.0 | WSW | 0 | 0.0 |
| 11.10.2024 | 05:33 | 7.8 | 90 | 6.3 | 1013.4 | 0.0 | WSW | 0 | 0.0 |
| 11.10.2024 | 05:39 | 7.8 | 90 | 6.3 | 1013.4 | 0.0 | WSW | 0 | 0.0 |
| 11.10.2024 | 05:42 | 7.8 | 90 | 6.3 | 1013.4 | 0.0 | WSW | 0 | 0.0 |
| 11.10.2024 | 05:48 | 7.7 | 90 | 6.2 | 1013.5 | 0.0 | WSW | 0 | 0.0 |
| 11.10.2024 | 05:54 | 7.7 | 90 | 6.2 | 1013.6 | 0.0 | WSW | 0 | 0.0 |
| 11.10.2024 | 05:57 | 7.7 | 90 | 6.2 | 1013.6 | 0.0 | WSW | 0 | 0.0 |
| 11.10.2024 | 06:03 | 7.7 | 89 | 6.0 | 1013.7 | 0.0 | WSW | 0 | 0.0 |
| 11.10.2024 | 06:09 | 7.8 | 90 | 6.3 | 1013.7 | 0.0 | WSW | 0 | 0.0 |
| 11.10.2024 | 06:12 | 7.8 | 90 | 6.3 | 1013.8 | 0.0 | WSW | 0 | 0.0 |
| 11.10.2024 | 06:18 | 7.8 | 90 | 6.3 | 1013.8 | 0.0 | WSW | 0 | 0.0 |
| 11.10.2024 | 06:24 | 7.8 | 90 | 6.3 | 1013.9 | 0.0 | WSW | 0 | 0.0 |
| 11.10.2024 | 06:27 | 7.8 | 90 | 6.3 | 1013.8 | 0.0 | WSW | 0 | 0.0 |
| 11.10.2024 | 06:33 | 7.8 | 90 | 6.3 | 1013.9 | 0.0 | WSW | 0 | 0.0 |
| 11.10.2024 | 06:39 | 7.9 | 90 | 6.4 | 1013.9 | 0.0 | SSO | 0 | 0.0 |
| 11.10.2024 | 06:42 | 7.9 | 90 | 6.4 | 1014.0 | 0.0 | SSO | 0 | 0.0 |
| 11.10.2024 | 06:48 | 7.9 | 90 | 6.4 | 1014.0 | 0.0 | SSW | 0 | 0.0 |
| 11.10.2024 | 06:54 | 7.9 | 90 | 6.4 | 1014.1 | 0.0 | SSW | 0 | 0.0 |
| 11.10.2024 | 06:57 | 7.9 | 90 | 6.4 | 1014.2 | 0.0 | SSW | 0 | 0.0 |
| 11.10.2024 | 07:03 | 7.9 | 90 | 6.4 | 1014.2 | 0.0 | SSW | 0 | 0.0 |
| 11.10.2024 | 07:09 | 7.8 | 90 | 6.3 | 1014.3 | 0.0 | SSW | 0 | 0.0 |
| 11.10.2024 | 07:12 | 7.8 | 90 | 6.3 | 1014.4 | 0.0 | SSW | 0 | 0.0 |
| 11.10.2024 | 07:18 | 7.8 | 90 | 6.3 | 1014.4 | 0.0 | SSW | 0 | 0.0 |
| 11.10.2024 | 07:24 | 7.9 | 90 | 6.4 | 1014.5 | 0.0 | SSW | 0 | 0.0 |
| 11.10.2024 | 07:27 | 7.9 | 90 | 6.4 | 1014.5 | 0.0 | SSW | 0 | 0.0 |
| 11.10.2024 | 07:33 | 7.8 | 90 | 6.3 | 1014.6 | 0.0 | SSW | 0 | 0.0 |
| 11.10.2024 | 07:39 | 7.8 | 90 | 6.3 | 1014.6 | 1.4 | SSW | 0 | 0.0 |
| 11.10.2024 | 07:42 | 7.8 | 90 | 6.3 | 1014.7 | 1.4 | SSW | 0 | 0.0 |
| 11.10.2024 | 07:48 | 7.8 | 90 | 6.3 | 1014.8 | 1.4 | SSW | 0 | 0.0 |
| 11.10.2024 | 07:54 | 7.8 | 90 | 6.3 | 1014.9 | 0.0 | SSW | 0 | 0.0 |
| 11.10.2024 | 07:57 | 7.8 | 90 | 6.3 | 1015.0 | 0.0 | SSW | 0 | 0.0 |
| 11.10.2024 | 08:03 | 7.8 | 90 | 6.3 | 1015.1 | 0.0 | SSW | 5 | 0.0 |
| 11.10.2024 | 08:09 | 7.8 | 90 | 6.3 | 1015.2 | 0.0 | SSW | 7 | 0.0 |
| 11.10.2024 | 08:12 | 7.9 | 90 | 6.4 | 1015.2 | 0.0 | SSW | 9 | 0.0 |
| 11.10.2024 | 08:18 | 7.9 | 90 | 6.4 | 1015.4 | 0.0 | SSW | 11 | 0.0 |
| 11.10.2024 | 08:24 | 7.9 | 90 | 6.4 | 1015.5 | 0.0 | SSW | 14 | 0.0 |
| 11.10.2024 | 08:27 | 7.9 | 90 | 6.4 | 1015.6 | 0.0 | SSW | 16 | 0.0 |
| 11.10.2024 | 08:33 | 7.9 | 90 | 6.4 | 1015.7 | 0.0 | SSW | 19 | 0.0 |
| 11.10.2024 | 08:39 | 7.9 | 90 | 6.4 | 1015.8 | 0.0 | SSW | 28 | 0.0 |
| 11.10.2024 | 08:42 | 7.9 | 90 | 6.4 | 1015.7 | 0.0 | SSW | 35 | 0.0 |
| 11.10.2024 | 08:48 | 7.9 | 90 | 6.4 | 1015.9 | 0.0 | SSW | 46 | 0.0 |
| 11.10.2024 | 08:54 | 7.9 | 90 | 6.4 | 1016.0 | 0.0 | SSW | 44 | 0.0 |
| 11.10.2024 | 08:57 | 7.9 | 90 | 6.4 | 1016.0 | 0.0 | SSW | 46 | 0.0 |
| 11.10.2024 | 09:03 | 8.0 | 90 | 6.5 | 1016.1 | 0.0 | SSW | 60 | 0.0 |
| 11.10.2024 | 09:09 | 8.0 | 90 | 6.5 | 1016.2 | 1.4 | S | 58 | 0.0 |
| 11.10.2024 | 09:12 | 8.0 | 90 | 6.5 | 1016.3 | 1.4 | S | 60 | 0.0 |
| 11.10.2024 | 09:18 | 8.1 | 90 | 6.6 | 1016.4 | 1.4 | S | 63 | 0.0 |
| 11.10.2024 | 09:24 | 8.0 | 90 | 6.5 | 1016.5 | 1.4 | S | 67 | 0.0 |
| 11.10.2024 | 09:27 | 8.0 | 90 | 6.5 | 1016.6 | 1.4 | SSO | 65 | 0.2 |
| 11.10.2024 | 09:33 | 8.1 | 90 | 6.6 | 1016.6 | 1.4 | S | 62 | 0.2 |
| 11.10.2024 | 09:39 | 8.1 | 90 | 6.6 | 1016.7 | 1.4 | S | 65 | 0.2 |
| 11.10.2024 | 09:42 | 8.1 | 90 | 6.6 | 1016.7 | 1.4 | SO | 69 | 0.2 |
| 11.10.2024 | 09:48 | 8.1 | 89 | 6.4 | 1016.8 | 1.4 | SSO | 63 | 0.2 |
| 11.10.2024 | 09:54 | 8.1 | 90 | 6.6 | 1016.9 | 1.4 | SSO | 58 | 0.2 |
| 11.10.2024 | 09:57 | 8.0 | 90 | 6.5 | 1016.9 | 1.4 | SSO | 60 | 0.2 |
| 11.10.2024 | 10:03 | 8.0 | 90 | 6.5 | 1017.0 | 3.2 | SSO | 65 | 0.2 |
| 11.10.2024 | 10:09 | 8.1 | 89 | 6.4 | 1017.0 | 1.4 | SSO | 76 | 0.2 |
| 11.10.2024 | 10:12 | 8.1 | 89 | 6.4 | 1017.0 | 1.4 | SSO | 84 | 0.2 |
| 11.10.2024 | 10:18 | 8.2 | 90 | 6.7 | 1017.1 | 0.0 | S | 98 | 0.2 |
| 11.10.2024 | 10:24 | 8.1 | 89 | 6.4 | 1017.2 | 1.4 | SSO | 109 | 0.2 |
| 11.10.2024 | 10:27 | 8.1 | 90 | 6.6 | 1017.2 | 1.4 | SSO | 118 | 0.2 |
| 11.10.2024 | 10:33 | 8.3 | 90 | 6.8 | 1017.3 | 0.0 | ONO | 137 | 0.2 |
| 11.10.2024 | 10:39 | 8.4 | 89 | 6.7 | 1017.3 | 1.4 | NO | 137 | 0.2 |
| 11.10.2024 | 10:42 | 8.5 | 89 | 6.8 | 1017.3 | 1.4 | SO | 141 | 0.2 |
| 11.10.2024 | 10:48 | 8.3 | 90 | 6.8 | 1017.5 | 1.4 | N | 174 | 0.2 |
| 11.10.2024 | 10:54 | 8.3 | 90 | 6.8 | 1017.5 | 3.2 | S | 156 | 0.2 |
| 11.10.2024 | 10:57 | 8.3 | 90 | 6.8 | 1017.6 | 3.2 | W | 193 | 0.2 |
| 11.10.2024 | 11:03 | 8.8 | 89 | 7.1 | 1017.6 | 1.4 | SO | 482 | 0.2 |
| 11.10.2024 | 11:09 | 9.2 | 89 | 7.5 | 1017.6 | 1.4 | SSO | 587 | 0.2 |
| 11.10.2024 | 11:12 | 9.3 | 90 | 7.7 | 1017.6 | 1.4 | SSO | 188 | 0.2 |
| 11.10.2024 | 11:18 | 9.3 | 90 | 7.7 | 1017.7 | 1.4 | SSO | 132 | 0.2 |
| 11.10.2024 | 11:24 | 8.9 | 89 | 7.2 | 1017.7 | 3.2 | NO | 141 | 0.2 |
| 11.10.2024 | 11:27 | 8.9 | 89 | 7.2 | 1017.7 | 1.4 | NW | 179 | 0.2 |
| 11.10.2024 | 11:33 | 9.0 | 88 | 7.1 | 1017.7 | 1.4 | S | 506 | 0.2 |
| 11.10.2024 | 11:39 | 9.6 | 89 | 7.9 | 1017.7 | 1.4 | SW | 515 | 0.2 |
| 11.10.2024 | 11:42 | 9.8 | 88 | 7.9 | 1017.7 | 1.4 | WSW | 501 | 0.2 |
| 11.10.2024 | 11:48 | 10.1 | 88 | 8.2 | 1017.7 | 1.4 | S | 121 | 0.2 |
| 11.10.2024 | 11:54 | 9.9 | 85 | 7.5 | 1017.7 | 1.4 | W | 471 | 0.2 |
| 11.10.2024 | 11:57 | 9.8 | 84 | 7.2 | 1017.8 | 1.4 | S | 77 | 0.2 |
| 11.10.2024 | 12:03 | 9.7 | 84 | 7.1 | 1017.8 | 1.4 | SSO | 200 | 0.2 |
| 11.10.2024 | 12:09 | 9.8 | 85 | 7.4 | 1017.8 | 3.2 | SO | 585 | 0.2 |
| 11.10.2024 | 12:12 | 9.9 | 85 | 7.5 | 1017.8 | 3.2 | SO | 617 | 0.2 |
| 11.10.2024 | 12:18 | 10.1 | 83 | 7.3 | 1017.8 | 3.2 | SSO | 390 | 0.2 |
| 11.10.2024 | 12:24 | 10.3 | 82 | 7.4 | 1017.9 | 3.2 | S | 329 | 0.2 |
| 11.10.2024 | 12:27 | 10.3 | 82 | 7.4 | 1017.9 | 3.2 | SO | 292 | 0.2 |
| 11.10.2024 | 12:33 | 10.6 | 81 | 7.5 | 1018.0 | 3.2 | S | 701 | 0.2 |
| 11.10.2024 | 12:39 | 10.9 | 81 | 7.8 | 1018.0 | 3.2 | SSW | 686 | 0.2 |
| 11.10.2024 | 12:42 | 11.0 | 79 | 7.5 | 1018.1 | 3.2 | S | 243 | 0.2 |
| 11.10.2024 | 12:48 | 10.9 | 77 | 7.0 | 1018.1 | 3.2 | SSW | 127 | 0.2 |
| 11.10.2024 | 12:54 | 10.8 | 74 | 6.4 | 1018.1 | 1.4 | WNW | 90 | 0.2 |
| 11.10.2024 | 12:57 | 10.8 | 77 | 6.9 | 1018.2 | 1.4 | N | 91 | 0.2 |
| 11.10.2024 | 13:03 | 10.8 | 79 | 7.3 | 1018.2 | 1.4 | SO | 86 | 0.2 |
| 11.10.2024 | 13:09 | 10.5 | 79 | 7.0 | 1018.2 | 1.4 | NNW | 104 | 0.2 |
| 11.10.2024 | 13:12 | 10.4 | 80 | 7.1 | 1018.2 | 1.4 | NNO | 121 | 0.2 |
| 11.10.2024 | 13:18 | 10.3 | 81 | 7.2 | 1018.2 | 0.0 | NNO | 221 | 0.2 |
| 11.10.2024 | 13:24 | 10.2 | 80 | 6.9 | 1018.2 | 1.4 | S | 380 | 0.2 |
| 11.10.2024 | 13:27 | 10.3 | 81 | 7.2 | 1018.2 | 1.4 | NW | 450 | 0.2 |
| 11.10.2024 | 13:33 | 10.4 | 80 | 7.1 | 1018.2 | 1.4 | N | 378 | 0.2 |
| 11.10.2024 | 13:39 | 10.7 | 81 | 7.6 | 1018.2 | 1.4 | W | 258 | 0.2 |
| 11.10.2024 | 13:42 | 10.8 | 80 | 7.5 | 1018.2 | 1.4 | NNO | 160 | 0.2 |
| 11.10.2024 | 13:48 | 10.8 | 78 | 7.1 | 1018.2 | 1.4 | WNW | 160 | 0.2 |
| 11.10.2024 | 13:54 | 10.6 | 78 | 6.9 | 1018.2 | 1.4 | NW | 218 | 0.2 |
| 11.10.2024 | 13:57 | 10.4 | 78 | 6.7 | 1018.2 | 1.4 | NW | 193 | 0.2 |
| 11.10.2024 | 14:03 | 10.3 | 77 | 6.4 | 1018.2 | 1.4 | W | 165 | 0.2 |
| 11.10.2024 | 14:09 | 10.4 | 78 | 6.7 | 1018.1 | 0.0 | SW | 185 | 0.2 |
| 11.10.2024 | 14:12 | 10.4 | 78 | 6.7 | 1018.1 | 1.4 | NW | 176 | 0.2 |
| 11.10.2024 | 14:18 | 10.4 | 77 | 6.5 | 1018.2 | 0.0 | N | 169 | 0.2 |
| 11.10.2024 | 14:24 | 10.4 | 77 | 6.5 | 1018.2 | 0.0 | NNO | 163 | 0.2 |
| 11.10.2024 | 14:27 | 10.5 | 77 | 6.6 | 1018.2 | 0.0 | NNO | 162 | 0.2 |
| 11.10.2024 | 14:33 | 10.7 | 78 | 7.0 | 1018.2 | 0.0 | S | 179 | 0.2 |
| 11.10.2024 | 14:39 | 10.8 | 77 | 6.9 | 1018.2 | 1.4 | S | 223 | 0.2 |
| 11.10.2024 | 14:42 | 10.8 | 77 | 6.9 | 1018.2 | 1.4 | NW | 287 | 0.2 |
| 11.10.2024 | 14:48 | 10.8 | 75 | 6.5 | 1018.2 | 0.0 | S | 167 | 0.2 |
| 11.10.2024 | 14:54 | 10.9 | 75 | 6.6 | 1018.2 | 1.4 | SSW | 264 | 0.2 |
| 11.10.2024 | 14:57 | 10.9 | 75 | 6.6 | 1018.2 | 3.2 | SO | 192 | 0.2 |
| 11.10.2024 | 15:03 | 10.9 | 76 | 6.8 | 1018.3 | 3.2 | SSO | 149 | 0.2 |
| 11.10.2024 | 15:09 | 10.9 | 76 | 6.8 | 1018.3 | 3.2 | WSW | 128 | 0.2 |
| 11.10.2024 | 15:12 | 10.8 | 76 | 6.7 | 1018.4 | 3.2 | W | 128 | 0.2 |
| 11.10.2024 | 15:18 | 10.7 | 77 | 6.8 | 1018.4 | 1.4 | W | 134 | 0.2 |
| 11.10.2024 | 15:24 | 10.7 | 77 | 6.8 | 1018.4 | 1.4 | NNW | 178 | 0.2 |
| 11.10.2024 | 15:27 | 10.8 | 78 | 7.1 | 1018.3 | 1.4 | NNO | 450 | 0.2 |
| 11.10.2024 | 15:33 | 11.2 | 78 | 7.5 | 1018.3 | 1.4 | OSO | 179 | 0.2 |
| 11.10.2024 | 15:39 | 11.3 | 77 | 7.4 | 1018.3 | 1.4 | SO | 197 | 0.2 |
| 11.10.2024 | 15:42 | 11.3 | 76 | 7.2 | 1018.3 | 1.4 | SO | 202 | 0.2 |
| 11.10.2024 | 15:48 | 11.2 | 75 | 6.9 | 1018.4 | 3.2 | SO | 216 | 0.2 |
| 11.10.2024 | 15:54 | 11.1 | 75 | 6.8 | 1018.4 | 1.4 | SSO | 221 | 0.2 |
| 11.10.2024 | 15:57 | 11.2 | 74 | 6.7 | 1018.4 | 1.4 | SO | 218 | 0.2 |
| 11.10.2024 | 16:03 | 11.2 | 73 | 6.5 | 1018.4 | 1.4 | SO | 200 | 0.2 |
| 11.10.2024 | 16:09 | 11.3 | 72 | 6.4 | 1018.4 | 3.2 | SSO | 232 | 0.2 |
| 11.10.2024 | 16:12 | 11.4 | 73 | 6.7 | 1018.5 | 3.2 | SSO | 176 | 0.2 |
| 11.10.2024 | 16:18 | 11.6 | 73 | 6.9 | 1018.4 | 1.4 | S | 359 | 0.2 |
| 11.10.2024 | 16:24 | 12.1 | 70 | 6.8 | 1018.3 | 1.4 | OSO | 345 | 0.2 |
| 11.10.2024 | 16:27 | 12.3 | 69 | 6.8 | 1018.3 | 1.4 | ONO | 323 | 0.2 |
| 11.10.2024 | 16:33 | 12.8 | 68 | 7.0 | 1018.3 | 1.4 | NW | 309 | 0.2 |
| 11.10.2024 | 16:39 | 12.8 | 65 | 6.4 | 1018.3 | 1.4 | WSW | 304 | 0.2 |
| 11.10.2024 | 16:42 | 12.8 | 67 | 6.8 | 1018.4 | 1.4 | WSW | 295 | 0.2 |
| 11.10.2024 | 16:48 | 13.1 | 70 | 7.8 | 1018.3 | 1.4 | WSW | 278 | 0.2 |
| 11.10.2024 | 16:54 | 13.2 | 64 | 6.5 | 1018.4 | 1.4 | SW | 239 | 0.2 |
| 11.10.2024 | 16:57 | 13.2 | 63 | 6.3 | 1018.4 | 1.4 | NW | 221 | 0.2 |
| 11.10.2024 | 17:03 | 13.1 | 62 | 6.0 | 1018.4 | 1.4 | N | 167 | 0.2 |
| 11.10.2024 | 17:09 | 13.2 | 67 | 7.2 | 1018.4 | 1.4 | WSW | 127 | 0.2 |
| 11.10.2024 | 17:12 | 13.1 | 67 | 7.1 | 1018.4 | 1.4 | W | 118 | 0.2 |
| 11.10.2024 | 17:18 | 12.5 | 69 | 7.0 | 1018.4 | 1.4 | WSW | 49 | 0.2 |
| 11.10.2024 | 17:24 | 11.9 | 71 | 6.8 | 1018.5 | 1.4 | W | 30 | 0.2 |
| 11.10.2024 | 17:27 | 11.6 | 72 | 6.7 | 1018.5 | 1.4 | W | 28 | 0.2 |
| 11.10.2024 | 17:33 | 11.2 | 75 | 6.9 | 1018.6 | 0.0 | SSW | 26 | 0.2 |
| 11.10.2024 | 17:39 | 10.8 | 76 | 6.7 | 1018.6 | 1.4 | SW | 26 | 0.2 |
| 11.10.2024 | 17:42 | 10.6 | 77 | 6.7 | 1018.6 | 1.4 | SW | 25 | 0.2 |
| 11.10.2024 | 17:48 | 10.2 | 79 | 6.7 | 1018.6 | 1.4 | SW | 23 | 0.2 |
| 11.10.2024 | 17:54 | 9.7 | 81 | 6.6 | 1018.7 | 1.4 | SW | 21 | 0.2 |
| 11.10.2024 | 17:57 | 9.6 | 82 | 6.7 | 1018.7 | 1.4 | SW | 21 | 0.2 |
| 11.10.2024 | 18:03 | 9.4 | 84 | 6.8 | 1018.8 | 1.4 | SW | 18 | 0.2 |
| 11.10.2024 | 18:09 | 9.2 | 84 | 6.6 | 1018.7 | 0.0 | SW | 18 | 0.2 |
| 11.10.2024 | 18:12 | 9.2 | 85 | 6.8 | 1018.7 | 0.0 | WSW | 16 | 0.2 |
| 11.10.2024 | 18:18 | 9.0 | 85 | 6.6 | 1018.7 | 0.0 | WSW | 14 | 0.2 |
| 11.10.2024 | 18:24 | 8.8 | 86 | 6.6 | 1018.7 | 0.0 | WSW | 12 | 0.2 |
| 11.10.2024 | 18:27 | 8.7 | 86 | 6.5 | 1018.6 | 0.0 | WSW | 11 | 0.2 |
| 11.10.2024 | 18:33 | 8.6 | 86 | 6.4 | 1018.6 | 0.0 | WSW | 9 | 0.2 |
| 11.10.2024 | 18:39 | 8.4 | 87 | 6.4 | 1018.6 | 0.0 | WSW | 7 | 0.2 |
| 11.10.2024 | 18:42 | 8.3 | 87 | 6.3 | 1018.7 | 0.0 | WSW | 5 | 0.2 |
| 11.10.2024 | 18:48 | 8.1 | 87 | 6.1 | 1018.6 | 0.0 | S | 0 | 0.2 |
| 11.10.2024 | 18:54 | 8.0 | 87 | 6.0 | 1018.7 | 0.0 | S | 0 | 0.2 |
| 11.10.2024 | 18:57 | 7.9 | 87 | 5.9 | 1018.7 | 0.0 | S | 0 | 0.2 |
| 11.10.2024 | 19:03 | 7.7 | 88 | 5.8 | 1018.7 | 0.0 | SW | 0 | 0.2 |
| 11.10.2024 | 19:09 | 7.6 | 88 | 5.7 | 1018.7 | 0.0 | WSW | 0 | 0.2 |
| 11.10.2024 | 19:12 | 7.5 | 88 | 5.6 | 1018.7 | 0.0 | SW | 0 | 0.2 |
| 11.10.2024 | 19:18 | 7.3 | 88 | 5.4 | 1018.7 | 0.0 | SW | 0 | 0.2 |
| 11.10.2024 | 19:24 | 7.2 | 88 | 5.3 | 1018.7 | 0.0 | NNW | 0 | 0.2 |
| 11.10.2024 | 19:27 | 7.1 | 88 | 5.2 | 1018.9 | 0.0 | WNW | 0 | 0.2 |
| 11.10.2024 | 19:33 | 6.9 | 88 | 5.1 | 1018.9 | 0.0 | WNW | 0 | 0.2 |
| 11.10.2024 | 19:39 | 6.8 | 88 | 5.0 | 1018.9 | 0.0 | WNW | 0 | 0.2 |
| 11.10.2024 | 19:42 | 6.7 | 88 | 4.9 | 1018.9 | 0.0 | WNW | 0 | 0.2 |
| 11.10.2024 | 19:48 | 6.6 | 89 | 4.9 | 1019.0 | 0.0 | WNW | 0 | 0.2 |
| 11.10.2024 | 19:54 | 6.4 | 88 | 4.6 | 1018.9 | 0.0 | WNW | 0 | 0.2 |
| 11.10.2024 | 19:57 | 6.4 | 88 | 4.6 | 1019.1 | 0.0 | NW | 0 | 0.2 |
| 11.10.2024 | 20:03 | 6.3 | 89 | 4.6 | 1019.1 | 0.0 | NW | 0 | 0.2 |
| 11.10.2024 | 20:09 | 6.2 | 89 | 4.5 | 1019.1 | 0.0 | N | 0 | 0.2 |
| 11.10.2024 | 20:12 | 6.1 | 89 | 4.4 | 1019.1 | 1.4 | NNW | 0 | 0.2 |
| 11.10.2024 | 20:18 | 6.0 | 89 | 4.3 | 1019.0 | 0.0 | NNW | 0 | 0.2 |
| 11.10.2024 | 20:24 | 5.9 | 89 | 4.2 | 1019.1 | 0.0 | NNW | 0 | 0.2 |
| 11.10.2024 | 20:27 | 5.8 | 89 | 4.1 | 1019.1 | 0.0 | NNW | 0 | 0.2 |
| 11.10.2024 | 20:33 | 5.8 | 89 | 4.1 | 1019.0 | 0.0 | N | 0 | 0.2 |
| 11.10.2024 | 20:39 | 5.7 | 89 | 4.0 | 1019.0 | 0.0 | N | 0 | 0.2 |
| 11.10.2024 | 20:42 | 5.7 | 89 | 4.0 | 1018.8 | 0.0 | N | 0 | 0.2 |
| 11.10.2024 | 20:48 | 5.7 | 89 | 4.0 | 1018.7 | 0.0 | N | 0 | 0.2 |
| 11.10.2024 | 20:54 | 5.6 | 89 | 3.9 | 1018.8 | 0.0 | N | 0 | 0.2 |
| 11.10.2024 | 20:57 | 5.6 | 89 | 3.9 | 1018.8 | 0.0 | N | 0 | 0.2 |
| 11.10.2024 | 21:03 | 5.4 | 89 | 3.7 | 1018.8 | 0.0 | N | 0 | 0.2 |
| 11.10.2024 | 21:09 | 5.4 | 89 | 3.7 | 1018.7 | 0.0 | N | 0 | 0.2 |
| 11.10.2024 | 21:12 | 5.4 | 89 | 3.7 | 1018.6 | 0.0 | N | 0 | 0.2 |
| 11.10.2024 | 21:18 | 5.3 | 89 | 3.6 | 1018.6 | 0.0 | N | 0 | 0.2 |
| 11.10.2024 | 21:24 | 5.2 | 89 | 3.5 | 1018.8 | 0.0 | N | 0 | 0.2 |
| 11.10.2024 | 21:27 | 5.2 | 89 | 3.5 | 1018.8 | 0.0 | N | 0 | 0.2 |
| 11.10.2024 | 21:33 | 5.1 | 89 | 3.4 | 1018.8 | 1.4 | N | 0 | 0.2 |
| 11.10.2024 | 21:39 | 5.0 | 89 | 3.3 | 1018.8 | 0.0 | N | 0 | 0.2 |
| 11.10.2024 | 21:42 | 5.0 | 89 | 3.3 | 1018.8 | 0.0 | N | 0 | 0.2 |
| 11.10.2024 | 21:48 | 4.9 | 89 | 3.2 | 1018.7 | 0.0 | N | 0 | 0.2 |
| 11.10.2024 | 21:54 | 4.9 | 89 | 3.2 | 1018.8 | 0.0 | N | 0 | 0.2 |
| 11.10.2024 | 21:57 | 4.9 | 89 | 3.2 | 1018.9 | 0.0 | N | 0 | 0.2 |
| 11.10.2024 | 22:03 | 4.8 | 89 | 3.1 | 1019.0 | 0.0 | N | 0 | 0.2 |
| 11.10.2024 | 22:09 | 4.8 | 89 | 3.1 | 1019.1 | 0.0 | N | 0 | 0.2 |
| 11.10.2024 | 22:12 | 4.7 | 89 | 3.0 | 1019.1 | 0.0 | N | 0 | 0.2 |
| 11.10.2024 | 22:18 | 4.7 | 89 | 3.0 | 1019.0 | 0.0 | N | 0 | 0.2 |
| 11.10.2024 | 22:24 | 4.6 | 89 | 2.9 | 1018.9 | 1.4 | N | 0 | 0.2 |
| 11.10.2024 | 22:27 | 4.6 | 89 | 2.9 | 1018.9 | 1.4 | N | 0 | 0.2 |
| 11.10.2024 | 22:33 | 4.6 | 89 | 2.9 | 1019.0 | 0.0 | N | 0 | 0.2 |
| 11.10.2024 | 22:39 | 4.6 | 89 | 2.9 | 1018.9 | 0.0 | N | 0 | 0.2 |
| 11.10.2024 | 22:42 | 4.6 | 89 | 2.9 | 1018.9 | 0.0 | N | 0 | 0.2 |
| 11.10.2024 | 22:48 | 4.6 | 90 | 3.1 | 1018.9 | 0.0 | N | 0 | 0.2 |
| 11.10.2024 | 22:54 | 4.5 | 90 | 3.0 | 1018.8 | 0.0 | N | 0 | 0.2 |
| 11.10.2024 | 22:57 | 4.5 | 89 | 2.8 | 1018.7 | 0.0 | N | 0 | 0.2 |
| 11.10.2024 | 23:03 | 4.4 | 89 | 2.7 | 1018.8 | 0.0 | N | 0 | 0.2 |
| 11.10.2024 | 23:09 | 4.4 | 89 | 2.7 | 1019.0 | 0.0 | N | 0 | 0.2 |
| 11.10.2024 | 23:12 | 4.4 | 89 | 2.7 | 1018.9 | 0.0 | N | 0 | 0.2 |
| 11.10.2024 | 23:18 | 4.3 | 90 | 2.8 | 1018.8 | 0.0 | N | 0 | 0.2 |
| 11.10.2024 | 23:24 | 4.2 | 90 | 2.7 | 1019.0 | 0.0 | N | 0 | 0.2 |
| 11.10.2024 | 23:27 | 4.2 | 90 | 2.7 | 1018.9 | 0.0 | N | 0 | 0.2 |
| 11.10.2024 | 23:33 | 4.2 | 90 | 2.7 | 1018.9 | 0.0 | OSO | 0 | 0.2 |
| 11.10.2024 | 23:39 | 4.1 | 89 | 2.5 | 1019.0 | 0.0 | OSO | 0 | 0.2 |
| 11.10.2024 | 23:42 | 4.1 | 89 | 2.5 | 1019.0 | 0.0 | OSO | 0 | 0.2 |
| 11.10.2024 | 23:48 | 3.9 | 89 | 2.3 | 1018.9 | 0.0 | O | 0 | 0.2 |
| 11.10.2024 | 23:54 | 3.9 | 89 | 2.3 | 1018.8 | 0.0 | ONO | 0 | 0.2 |
| 11.10.2024 | 23:57 | 3.9 | 89 | 2.3 | 1018.9 | 0.0 | ONO | 0 | 0.2 |